createdAt,value
2022-12-13T00:01:53.114Z,-14.00
2022-12-13T00:04:23.568Z,-14.20
2022-12-13T00:06:51.847Z,-14.20
2022-12-13T00:09:19.768Z,-14.10
2022-12-13T00:11:48.845Z,-14.20
2022-12-13T00:14:16.821Z,-14.20
2022-12-13T00:16:49.499Z,-14.20
2022-12-13T00:19:18.510Z,-14.20
2022-12-13T00:21:45.984Z,-14.20
2022-12-13T00:24:13.677Z,-14.10
2022-12-13T00:26:41.004Z,-14.10
2022-12-13T00:29:09.229Z,-14.10
2022-12-13T00:31:58.779Z,-14.10
2022-12-13T00:34:24.947Z,-14.10
2022-12-13T00:36:54.609Z,-14.20
2022-12-13T00:39:21.851Z,-13.40
2022-12-13T00:41:49.056Z,-13.10
2022-12-13T00:44:16.447Z,-14.10
2022-12-13T00:46:44.097Z,-14.10
2022-12-13T00:49:13.071Z,-13.90
2022-12-13T00:51:41.129Z,-14.20
2022-12-13T00:54:09.313Z,-14.30
2022-12-13T00:56:38.108Z,-14.30
2022-12-13T00:59:05.432Z,-13.60
2022-12-13T01:01:36.389Z,-14.40
2022-12-13T01:04:06.211Z,-14.40
2022-12-13T01:06:46.079Z,-14.40
2022-12-13T01:09:19.976Z,-14.40
2022-12-13T01:11:48.261Z,-13.60
2022-12-13T01:14:17.223Z,-14.40
2022-12-13T01:16:44.505Z,-14.30
2022-12-13T01:19:11.798Z,-14.30
2022-12-13T01:21:39.318Z,-14.20
2022-12-13T01:24:07.644Z,-14.10
2022-12-13T01:26:34.991Z,-14.10
2022-12-13T01:29:02.244Z,-14.20
2022-12-13T01:31:29.641Z,-14.20
2022-12-13T01:33:57.593Z,-14.30
2022-12-13T01:36:26.992Z,-14.30
2022-12-13T01:38:58.473Z,-14.20
2022-12-13T01:41:28.894Z,-14.30
2022-12-13T01:44:05.803Z,-14.30
2022-12-13T01:46:36.535Z,-14.40
2022-12-13T01:49:19.975Z,-14.40
2022-12-13T01:51:56.474Z,-14.40
2022-12-13T01:54:36.657Z,-14.50
2022-12-13T01:57:08.931Z,-14.60
2022-12-13T01:59:39.508Z,-14.50
2022-12-13T02:02:09.631Z,-14.50
2022-12-13T02:05:04.095Z,-14.20
2022-12-13T02:07:35.206Z,-13.50
2022-12-13T02:10:06.419Z,-14.60
2022-12-13T02:12:36.751Z,-14.60
2022-12-13T02:15:13.308Z,-14.60
2022-12-13T02:18:25.268Z,-14.60
2022-12-13T02:21:13.690Z,-14.60
2022-12-13T02:23:46.854Z,-14.60
2022-12-13T02:26:41.805Z,-14.50
2022-12-13T02:29:58.416Z,-14.40
2022-12-13T02:32:49.874Z,-14.50
2022-12-13T02:35:26.319Z,-14.40
2022-12-13T02:38:25.461Z,-14.30
2022-12-13T02:41:22.415Z,-14.30
2022-12-13T02:44:22.239Z,-14.40
2022-12-13T02:47:06.616Z,-14.40
2022-12-13T02:49:47.316Z,-14.40
2022-12-13T02:52:22.113Z,-14.40
2022-12-13T02:54:50.163Z,-14.40
2022-12-13T02:57:35.693Z,-14.30
2022-12-13T03:00:17.772Z,-14.30
2022-12-13T03:03:22.358Z,-14.10
2022-12-13T03:06:12.651Z,-14.20
2022-12-13T03:09:30.837Z,-14.30
2022-12-13T03:12:13.056Z,-14.20
2022-12-13T03:15:15.430Z,-14.20
2022-12-13T03:17:59.946Z,-14.10
2022-12-13T03:20:29.755Z,-14.10
2022-12-13T03:22:58.085Z,-14.20
2022-12-13T03:25:31.377Z,-14.20
2022-12-13T03:28:02.493Z,-14.10
2022-12-13T03:30:32.829Z,-14.20
2022-12-13T03:33:00.579Z,-14.20
2022-12-13T03:35:34.472Z,-14.10
2022-12-13T03:38:22.576Z,-14.10
2022-12-13T03:41:17.324Z,-14.30
2022-12-13T03:43:45.373Z,-14.40
2022-12-13T03:46:12.844Z,-14.30
2022-12-13T03:48:40.134Z,-14.40
2022-12-13T03:51:07.730Z,-14.50
2022-12-13T03:53:35.194Z,-14.50
2022-12-13T03:56:05.912Z,-14.50
2022-12-13T03:58:38.129Z,-14.50
2022-12-13T04:01:12.766Z,-14.20
2022-12-13T04:03:42.108Z,-14.50
2022-12-13T04:06:11.122Z,-14.60
2022-12-13T04:08:40.080Z,-14.60
2022-12-13T04:11:07.995Z,-14.50
2022-12-13T04:13:35.243Z,-14.50
2022-12-13T04:16:03.535Z,-14.60
2022-12-13T04:18:31.138Z,-14.60
2022-12-13T04:20:58.626Z,-14.50
2022-12-13T04:23:25.818Z,-14.50
2022-12-13T04:25:53.225Z,-14.50
2022-12-13T04:28:22.130Z,-14.50
2022-12-13T04:30:53.307Z,-14.60
2022-12-13T04:33:25.061Z,-14.50
2022-12-13T04:35:52.447Z,-14.50
2022-12-13T04:38:20.118Z,-14.40
2022-12-13T04:40:47.386Z,-14.40
2022-12-13T04:43:14.605Z,-14.40
2022-12-13T04:45:43.425Z,-14.40
2022-12-13T04:48:11.375Z,-14.40
2022-12-13T04:50:38.675Z,-14.50
2022-12-13T04:53:05.933Z,-14.40
2022-12-13T04:55:34.102Z,-14.20
2022-12-13T04:58:01.545Z,-14.60
2022-12-13T05:00:28.731Z,-14.60
2022-12-13T05:02:56.019Z,-14.50
2022-12-13T05:05:23.267Z,-14.50
2022-12-13T05:07:50.594Z,-13.60
2022-12-13T05:10:37.486Z,-14.50
2022-12-13T05:13:06.367Z,-14.60
2022-12-13T05:15:34.440Z,-14.70
2022-12-13T05:18:10.185Z,-14.70
2022-12-13T05:20:39.887Z,-13.80
2022-12-13T05:23:07.418Z,-14.80
2022-12-13T05:25:34.919Z,-13.90
2022-12-13T05:28:27.151Z,-14.00
2022-12-13T05:30:49.386Z,-14.50
2022-12-13T05:33:16.578Z,-14.60
2022-12-13T05:35:44.700Z,-14.70
2022-12-13T05:38:11.937Z,-13.90
2022-12-13T05:40:39.191Z,-13.70
2022-12-13T05:43:22.251Z,-14.80
2022-12-13T05:45:50.846Z,-14.70
2022-12-13T05:48:24.316Z,-14.70
2022-12-13T05:50:52.520Z,-14.70
2022-12-13T05:53:42.623Z,-14.80
2022-12-13T05:56:11.700Z,-14.80
2022-12-13T05:58:40.888Z,-14.70
2022-12-13T06:01:12.642Z,-14.70
2022-12-13T06:03:41.871Z,-14.10
2022-12-13T06:06:12.041Z,-14.80
2022-12-13T06:08:40.019Z,-14.80
2022-12-13T06:11:10.988Z,-14.80
2022-12-13T06:13:44.102Z,-14.80
2022-12-13T06:16:23.203Z,-14.40
2022-12-13T06:19:00.974Z,-14.90
2022-12-13T06:21:43.500Z,-14.80
2022-12-13T06:24:16.320Z,-14.80
2022-12-13T06:26:45.225Z,-14.90
2022-12-13T06:29:24.206Z,-14.80
2022-12-13T06:32:03.306Z,-14.70
2022-12-13T06:34:36.233Z,-14.80
2022-12-13T06:37:07.418Z,-14.80
2022-12-13T06:39:36.665Z,-14.90
2022-12-13T06:42:07.142Z,-13.60
2022-12-13T06:44:35.422Z,-14.80
2022-12-13T06:47:11.241Z,-14.20
2022-12-13T06:49:42.640Z,-14.60
2022-12-13T06:52:12.142Z,-14.90
2022-12-13T06:54:39.609Z,-14.10
2022-12-13T06:57:07.243Z,-15.00
2022-12-13T06:59:34.937Z,-14.90
2022-12-13T07:02:03.729Z,-14.90
2022-12-13T07:04:32.829Z,-14.00
2022-12-13T07:07:01.753Z,-14.90
2022-12-13T07:09:33.170Z,-14.50
2022-12-13T07:12:01.052Z,-14.90
2022-12-13T07:14:28.577Z,-14.30
2022-12-13T07:17:03.165Z,-15.00
2022-12-13T07:19:35.381Z,-15.00
2022-12-13T07:22:04.610Z,-15.00
2022-12-13T07:24:32.188Z,-14.90
2022-12-13T07:26:59.414Z,-13.80
2022-12-13T07:29:26.834Z,-14.80
2022-12-13T07:31:54.111Z,-14.80
2022-12-13T07:34:30.079Z,-14.70
2022-12-13T07:36:57.966Z,-13.90
2022-12-13T07:39:26.489Z,-14.40
2022-12-13T07:41:56.007Z,-14.40
2022-12-13T07:44:24.878Z,-14.40
2022-12-13T07:46:52.588Z,-14.30
2022-12-13T07:49:21.102Z,-13.60
2022-12-13T07:51:48.778Z,-14.10
2022-12-13T07:54:16.853Z,-13.90
2022-12-13T07:56:47.270Z,-13.90
2022-12-13T07:59:14.480Z,-13.80
2022-12-13T08:01:41.802Z,-13.90
2022-12-13T08:04:09.136Z,-13.90
2022-12-13T08:06:38.373Z,-13.80
2022-12-13T08:09:06.231Z,-13.90
2022-12-13T08:11:33.992Z,-13.90
2022-12-13T08:14:01.323Z,-13.80
2022-12-13T08:16:29.617Z,-13.60
2022-12-13T08:19:01.950Z,-13.50
2022-12-13T08:21:58.319Z,-13.40
2022-12-13T08:24:28.934Z,-13.40
2022-12-13T08:26:58.890Z,-13.30
2022-12-13T08:29:34.040Z,-13.30
2022-12-13T08:32:12.477Z,-13.30
2022-12-13T08:34:40.318Z,-13.20
2022-12-13T08:37:08.200Z,-13.20
2022-12-13T08:39:38.553Z,-13.00
2022-12-13T08:42:19.445Z,-12.90
2022-12-13T08:44:49.545Z,-12.80
2022-12-13T08:47:22.577Z,-12.70
2022-12-13T08:49:51.241Z,-12.60
2022-12-13T08:52:18.740Z,-12.60
2022-12-13T08:54:45.849Z,-12.50
2022-12-13T08:57:13.041Z,-12.50
2022-12-13T08:59:40.961Z,-12.40
2022-12-13T09:02:14.185Z,-12.20
2022-12-13T09:04:42.180Z,-12.20
2022-12-13T09:07:09.390Z,-12.20
2022-12-13T09:09:36.989Z,-12.10
2022-12-13T09:12:10.861Z,-12.00
2022-12-13T09:14:53.171Z,-11.90
2022-12-13T09:17:36.895Z,-11.80
2022-12-13T09:20:28.694Z,-11.80
2022-12-13T09:23:02.402Z,-11.70
2022-12-13T09:25:37.378Z,-11.70
2022-12-13T09:28:08.782Z,-11.70
2022-12-13T09:30:38.879Z,-11.70
2022-12-13T09:33:18.300Z,-11.60
2022-12-13T09:35:53.641Z,-11.60
2022-12-13T09:38:20.888Z,-11.60
2022-12-13T09:40:58.630Z,-11.50
2022-12-13T09:43:43.126Z,-11.50
2022-12-13T09:46:34.243Z,-11.30
2022-12-13T09:49:13.303Z,-11.20
2022-12-13T09:51:44.984Z,-11.10
2022-12-13T09:54:22.277Z,-11.10
2022-12-13T09:56:51.290Z,-11.00
2022-12-13T09:59:30.179Z,-10.90
2022-12-13T10:02:14.512Z,-10.80
2022-12-13T10:04:42.044Z,-10.70
2022-12-13T10:07:23.836Z,-10.60
2022-12-13T10:10:00.783Z,-10.50
2022-12-13T10:12:29.534Z,-10.40
2022-12-13T10:15:02.447Z,-10.30
2022-12-13T10:17:41.267Z,-10.20
2022-12-13T10:20:22.009Z,-10.20
2022-12-13T10:23:14.968Z,-10.20
2022-12-13T10:26:03.465Z,-10.20
2022-12-13T10:28:33.837Z,-10.10
2022-12-13T10:31:03.024Z,-10.00
2022-12-13T10:33:35.344Z,-9.90
2022-12-13T10:36:35.279Z,-9.70
2022-12-13T10:39:03.194Z,-9.70
2022-12-13T10:41:38.496Z,-9.70
2022-12-13T10:44:25.064Z,-9.50
2022-12-13T10:47:10.353Z,-9.40
2022-12-13T10:50:00.399Z,-9.20
2022-12-13T10:52:43.140Z,-9.10
2022-12-13T10:55:31.650Z,-9.10
2022-12-13T10:58:04.031Z,-9.00
2022-12-13T11:00:46.887Z,-9.00
2022-12-13T11:03:30.409Z,-9.00
2022-12-13T11:06:14.569Z,-9.10
2022-12-13T11:08:41.989Z,-9.10
2022-12-13T11:11:10.748Z,-9.10
2022-12-13T11:14:06.628Z,-9.10
2022-12-13T11:16:39.965Z,-9.10
2022-12-13T11:19:20.932Z,-9.00
2022-12-13T11:21:52.084Z,-9.00
2022-12-13T11:24:25.798Z,-8.90
2022-12-13T11:27:04.696Z,-8.90
2022-12-13T11:29:57.766Z,-8.90
2022-12-13T11:33:14.656Z,-8.80
2022-12-13T11:36:21.198Z,-8.70
2022-12-13T11:39:19.038Z,-8.70
2022-12-13T11:42:14.520Z,-8.60
2022-12-13T11:45:11.808Z,-8.60
2022-12-13T11:48:24.569Z,-8.50
2022-12-13T11:50:55.252Z,-8.40
2022-12-13T11:53:58.134Z,-8.40
2022-12-13T11:56:43.602Z,-8.50
2022-12-13T11:59:47.277Z,-8.50
2022-12-13T12:02:47.437Z,-8.50
2022-12-13T12:05:46.672Z,-8.60
2022-12-13T12:08:44.624Z,-8.60
2022-12-13T12:11:56.762Z,-8.70
2022-12-13T12:15:15.601Z,-8.80
2022-12-13T12:17:44.082Z,-8.70
2022-12-13T12:20:24.000Z,-8.70
2022-12-13T12:23:27.977Z,-8.70
2022-12-13T12:26:31.243Z,-8.80
2022-12-13T12:29:23.673Z,-8.80
2022-12-13T12:32:31.433Z,-8.70
2022-12-13T12:35:32.560Z,-8.70
2022-12-13T12:38:42.318Z,-8.60
2022-12-13T12:41:23.328Z,-8.60
2022-12-13T12:44:39.830Z,-8.50
2022-12-13T12:47:49.002Z,-8.50
2022-12-13T12:50:47.273Z,-8.30
2022-12-13T12:53:45.104Z,-8.30
2022-12-13T12:56:44.601Z,-8.20
2022-12-13T12:59:29.456Z,-8.10
2022-12-13T13:02:25.902Z,-8.00
2022-12-13T13:05:03.280Z,-7.90
2022-12-13T13:07:40.381Z,-7.90
2022-12-13T13:10:26.478Z,-7.90
2022-12-13T13:13:12.000Z,-7.80
2022-12-13T13:15:40.584Z,-7.80
2022-12-13T13:18:46.288Z,-7.70
2022-12-13T13:21:40.651Z,-7.70
2022-12-13T13:24:08.019Z,-7.70
2022-12-13T13:26:40.782Z,-7.70
2022-12-13T13:29:30.564Z,-7.80
2022-12-13T13:32:11.487Z,-7.80
2022-12-13T13:34:43.605Z,-7.80
2022-12-13T13:37:25.697Z,-7.80
2022-12-13T13:39:53.062Z,-7.80
2022-12-13T13:42:29.611Z,-7.90
2022-12-13T13:45:24.537Z,-7.90
2022-12-13T13:48:41.128Z,-7.90
2022-12-13T13:51:32.565Z,-8.00
2022-12-13T13:54:43.213Z,-8.00
2022-12-13T14:01:14.056Z,-8.20
2022-12-13T14:04:09.802Z,-8.20
2022-12-13T14:07:26.467Z,-8.30
2022-12-13T14:10:00.424Z,-8.40
2022-12-13T14:13:25.039Z,-8.40
2022-12-13T14:16:29.241Z,-8.50
2022-12-13T14:19:47.356Z,-8.50
2022-12-13T14:22:43.120Z,-8.50
2022-12-13T14:26:09.952Z,-8.50
2022-12-13T14:28:59.346Z,-8.50
2022-12-13T14:31:40.589Z,-8.50
2022-12-13T14:34:36.428Z,-8.60
2022-12-13T14:37:21.321Z,-8.70
2022-12-13T14:39:48.676Z,-8.70
2022-12-13T14:42:34.284Z,-8.70
2022-12-13T14:45:23.971Z,-8.70
2022-12-13T14:47:54.116Z,-8.70
2022-12-13T14:50:25.088Z,-8.70
2022-12-13T14:52:54.007Z,-8.60
2022-12-13T14:55:32.048Z,-8.60
2022-12-13T14:58:02.195Z,-8.60
2022-12-13T15:00:40.247Z,-8.60
2022-12-13T15:03:07.972Z,-8.60
2022-12-13T15:05:50.470Z,-8.70
2022-12-13T15:08:20.338Z,-8.70
2022-12-13T15:10:56.153Z,-8.70
2022-12-13T15:13:44.908Z,-8.70
2022-12-13T15:16:29.297Z,-8.80
2022-12-13T15:19:14.014Z,-8.80
2022-12-13T15:22:02.313Z,-8.80
2022-12-13T15:24:39.025Z,-8.80
2022-12-13T15:27:09.244Z,-8.80
2022-12-13T15:29:37.365Z,-8.80
2022-12-13T15:32:11.560Z,-8.80
2022-12-13T15:34:38.767Z,-8.80
2022-12-13T15:37:29.606Z,-8.80
2022-12-13T15:40:08.138Z,-8.80
2022-12-13T15:42:43.642Z,-8.80
2022-12-13T15:45:25.284Z,-8.80
2022-12-13T15:47:54.909Z,-8.80
2022-12-13T15:50:41.017Z,-8.80
2022-12-13T15:53:28.937Z,-8.80
2022-12-13T15:55:56.725Z,-8.90
2022-12-13T15:58:37.505Z,-8.80
2022-12-13T16:01:05.313Z,-8.80
2022-12-13T16:03:44.295Z,-8.90
2022-12-13T16:06:19.612Z,-8.90
2022-12-13T16:08:56.737Z,-8.90
2022-12-13T16:11:53.515Z,-8.90
2022-12-13T16:14:36.879Z,-8.90
2022-12-13T16:17:28.241Z,-8.90
2022-12-13T16:19:57.629Z,-8.90
2022-12-13T16:22:25.148Z,-9.00
2022-12-13T16:24:53.111Z,-9.00
2022-12-13T16:27:20.418Z,-9.00
2022-12-13T16:29:47.670Z,-9.10
2022-12-13T16:32:15.393Z,-9.10
2022-12-13T16:34:42.757Z,-9.10
2022-12-13T16:37:25.509Z,-9.10
2022-12-13T16:39:55.695Z,-9.10
2022-12-13T16:42:26.563Z,-9.20
2022-12-13T16:45:17.872Z,-9.20
2022-12-13T16:47:48.454Z,-9.20
2022-12-13T16:50:20.668Z,-9.20
2022-12-13T16:52:49.240Z,-9.30
2022-12-13T16:55:16.730Z,-9.20
2022-12-13T16:57:44.041Z,-9.30
2022-12-13T17:00:13.642Z,-9.30
2022-12-13T17:02:40.894Z,-9.30
2022-12-13T17:05:08.983Z,-9.30
2022-12-13T17:07:36.180Z,-9.40
2022-12-13T17:10:04.541Z,-9.40
2022-12-13T17:12:31.871Z,-9.50
2022-12-13T17:14:59.083Z,-9.40
2022-12-13T17:17:26.274Z,-9.50
2022-12-13T17:19:53.687Z,-9.60
2022-12-13T17:22:20.913Z,-9.70
2022-12-13T17:24:48.192Z,-9.70
2022-12-13T17:27:15.407Z,-9.60
2022-12-13T17:29:42.551Z,-9.60
2022-12-13T17:32:09.783Z,-9.70
2022-12-13T17:34:37.182Z,-9.70
2022-12-13T17:37:10.125Z,-9.70
2022-12-13T17:39:38.725Z,-9.70
2022-12-13T17:42:06.648Z,-9.60
2022-12-13T17:44:33.951Z,-9.50
2022-12-13T17:47:08.988Z,-9.40
2022-12-13T17:49:36.294Z,-9.40
2022-12-13T17:52:03.464Z,-9.40
2022-12-13T17:54:30.742Z,-9.50
2022-12-13T17:56:58.211Z,-9.60
2022-12-13T17:59:25.636Z,-9.60
2022-12-13T18:01:53.588Z,-9.60
2022-12-13T18:04:21.529Z,-9.70
2022-12-13T18:06:50.941Z,-9.70
2022-12-13T18:09:18.482Z,-9.70
2022-12-13T18:11:45.797Z,-9.70
2022-12-13T18:14:13.376Z,-9.60
2022-12-13T18:16:41.007Z,-9.50
2022-12-13T18:19:13.612Z,-9.50
2022-12-13T18:21:46.256Z,-9.50
2022-12-13T18:24:18.416Z,-9.50
2022-12-13T18:26:47.767Z,-9.50
2022-12-13T18:29:16.034Z,-9.50
2022-12-13T18:31:45.182Z,-9.50
2022-12-13T18:34:14.071Z,-9.50
2022-12-13T18:36:41.822Z,-9.40
2022-12-13T18:39:09.346Z,-9.40
2022-12-13T18:41:41.342Z,-9.50
2022-12-13T18:44:11.308Z,-9.50
2022-12-13T18:46:43.468Z,-9.50
2022-12-13T18:49:13.562Z,-9.50
2022-12-13T18:51:41.043Z,-9.50
2022-12-13T18:54:12.797Z,-9.50
2022-12-13T18:56:40.101Z,-9.60
2022-12-13T18:59:07.758Z,-9.60
2022-12-13T19:01:37.139Z,-9.60
2022-12-13T19:04:06.409Z,-9.60
2022-12-13T19:06:34.045Z,-9.60
2022-12-13T19:09:09.083Z,-9.60
2022-12-13T19:11:37.910Z,-9.70
2022-12-13T19:14:05.686Z,-9.70
2022-12-13T19:16:33.994Z,-9.60
2022-12-13T19:19:02.209Z,-9.60
2022-12-13T19:21:29.432Z,-9.60
2022-12-13T19:23:58.443Z,-9.60
2022-12-13T19:26:29.788Z,-9.70
2022-12-13T19:28:59.043Z,-9.80
2022-12-13T19:31:32.182Z,-9.80
2022-12-13T19:34:01.943Z,-9.80
2022-12-13T19:36:33.458Z,-9.80
2022-12-13T19:39:05.835Z,-9.80
2022-12-13T19:41:33.195Z,-9.80
2022-12-13T19:44:03.297Z,-9.80
2022-12-13T19:46:31.982Z,-9.80
2022-12-13T19:48:59.696Z,-9.80
2022-12-13T19:51:26.937Z,-9.70
2022-12-13T19:53:54.234Z,-9.70
2022-12-13T19:56:22.416Z,-9.70
2022-12-13T19:58:50.389Z,-9.70
2022-12-13T20:01:19.097Z,-9.70
2022-12-13T20:03:46.962Z,-9.60
2022-12-13T20:06:22.682Z,-9.60
2022-12-13T20:08:50.693Z,-9.50
2022-12-13T20:11:22.904Z,-9.50
2022-12-13T20:13:54.942Z,-9.50
2022-12-13T20:16:26.013Z,-9.40
2022-12-13T20:18:59.715Z,-9.30
2022-12-13T20:21:28.902Z,-9.40
2022-12-13T20:23:57.161Z,-9.30
2022-12-13T20:26:27.853Z,-9.40
2022-12-13T20:28:56.541Z,-9.40
2022-12-13T20:31:32.167Z,-9.40
2022-12-13T20:34:04.707Z,-9.30
2022-12-13T20:36:32.751Z,-9.30
2022-12-13T20:39:03.896Z,-9.30
2022-12-13T20:41:33.691Z,-9.30
2022-12-13T20:44:03.092Z,-9.20
2022-12-13T20:46:31.400Z,-9.20
2022-12-13T20:49:02.400Z,-9.30
2022-12-13T20:51:32.088Z,-9.30
2022-12-13T20:53:59.439Z,-9.30
2022-12-13T20:56:31.008Z,-9.20
2022-12-13T20:58:58.280Z,-9.20
2022-12-13T21:01:33.198Z,-9.10
2022-12-13T21:04:03.859Z,-9.20
2022-12-13T21:06:36.893Z,-9.20
2022-12-13T21:09:06.004Z,-9.20
2022-12-13T21:11:43.155Z,-9.20
2022-12-13T21:14:23.619Z,-9.10
2022-12-13T21:16:53.400Z,-9.10
2022-12-13T21:19:25.241Z,-9.10
2022-12-13T21:21:54.442Z,-9.10
2022-12-13T21:24:24.246Z,-9.10
2022-12-13T21:26:52.370Z,-9.00
2022-12-13T21:29:19.964Z,-9.00
2022-12-13T21:31:49.491Z,-9.00
2022-12-13T21:34:18.313Z,-9.00
2022-12-13T21:36:48.618Z,-9.00
2022-12-13T21:39:26.603Z,-8.90
2022-12-13T21:41:54.076Z,-8.90
2022-12-13T21:44:22.131Z,-9.00
2022-12-13T21:49:37.471Z,-9.00
2022-12-13T21:52:05.058Z,-8.90
2022-12-13T21:54:32.202Z,-8.90
2022-12-13T21:56:59.422Z,-8.90
2022-12-13T21:59:28.364Z,-8.80
2022-12-13T22:02:06.534Z,-8.80
2022-12-13T22:04:36.920Z,-8.80
2022-12-13T22:07:06.636Z,-8.80
2022-12-13T22:09:35.540Z,-8.70
2022-12-13T22:12:11.042Z,-8.70
2022-12-13T22:14:38.399Z,-8.80
2022-12-13T22:17:05.673Z,-8.80
2022-12-13T22:19:33.038Z,-8.90
2022-12-13T22:22:00.374Z,-8.90
2022-12-13T22:24:27.652Z,-8.90
2022-12-13T22:26:54.904Z,-9.00
2022-12-13T22:29:22.115Z,-8.90
2022-12-13T22:31:49.668Z,-8.90
2022-12-13T22:34:17.385Z,-9.00
2022-12-13T22:36:44.715Z,-9.00
2022-12-13T22:39:22.139Z,-9.00
2022-12-13T22:41:51.223Z,-9.10
2022-12-13T22:44:20.147Z,-9.10
2022-12-13T22:46:47.949Z,-9.10
2022-12-13T22:49:15.369Z,-9.10
2022-12-13T22:51:42.943Z,-9.10
2022-12-13T22:54:10.516Z,-9.00
2022-12-13T22:56:38.022Z,-9.00
2022-12-13T22:59:06.028Z,-9.00
2022-12-13T23:01:37.879Z,-9.00
2022-12-13T23:04:06.743Z,-8.90
2022-12-13T23:06:37.854Z,-8.90
2022-12-13T23:09:10.446Z,-8.90
2022-12-13T23:11:38.071Z,-8.90
2022-12-13T23:14:08.648Z,-8.90
2022-12-13T23:16:36.968Z,-8.90
2022-12-13T23:19:39.857Z,-8.90
2022-12-13T23:21:55.821Z,-8.90
2022-12-13T23:24:23.060Z,-8.90
2022-12-13T23:26:50.489Z,-8.90
2022-12-13T23:29:17.919Z,-8.90
2022-12-13T23:31:48.865Z,-8.80
2022-12-13T23:34:16.997Z,-8.80
2022-12-13T23:36:44.464Z,-8.80
2022-12-13T23:39:12.198Z,-8.80
2022-12-13T23:41:39.413Z,-8.80
2022-12-13T23:44:07.009Z,-8.80
2022-12-13T23:46:36.499Z,-8.80
2022-12-13T23:49:05.648Z,-8.70
2022-12-13T23:51:34.775Z,-8.70
2022-12-13T23:54:02.271Z,-8.60
2022-12-13T23:56:29.876Z,-8.60
2022-12-13T23:58:57.117Z,-8.60
